Time;durP1;ratioP1;P1;durP2;ratioP2;P2;SDS_P1;SDS_P2;PMS_P1;PMS_P2;Temp;Humidity;BMP_temperature;BMP_pressure;BME280_temperature;BME280_humidity;BME280_pressure;Samples;Min_cycle;Max_cycle;Signal;HPM_P1;HPM_P2
2021/06/02 00:01:42;;;;;;;;;;;19.90;60.70;;;;;;5033770;28;1100;-73
2021/06/02 00:04:07;;;;;;;;;;;20.00;60.80;;;;;;5034333;28;1103;-73
2021/06/02 00:06:33;;;;;;;;;;;19.90;60.80;;;;;;5034137;28;1945;-73
2021/06/02 00:08:58;;;;;;;;;;;19.90;60.80;;;;;;5033529;28;1277;-73
2021/06/02 00:11:23;;;;;;;;;;;19.90;60.80;;;;;;5034461;28;1091;-73
2021/06/02 00:13:49;;;;;;;;;;;19.90;60.80;;;;;;5034151;28;1130;-73
2021/06/02 00:16:14;;;;;;;;;;;19.90;60.80;;;;;;5035066;28;1244;-73
2021/06/02 00:18:40;;;;;;;;;;;19.90;60.90;;;;;;5034240;28;1353;-73
2021/06/02 00:21:06;;;;;;;;;;;19.90;60.90;;;;;;5033414;28;1147;-73
2021/06/02 00:23:32;;;;;;;;;;;19.90;60.90;;;;;;5033877;28;1083;-73
2021/06/02 00:25:57;;;;;;;;;;;19.90;60.90;;;;;;5034765;28;1973;-73
2021/06/02 00:28:23;;;;;;;;;;;19.90;60.90;;;;;;5033106;28;1321;-73
2021/06/02 00:30:48;;;;;;;;;;;19.90;60.90;;;;;;5033938;28;1171;-73
2021/06/02 00:33:14;;;;;;;;;;;19.90;61.00;;;;;;5032764;28;1092;-73
2021/06/02 00:35:41;;;;;;;;;;;19.90;61.00;;;;;;5032847;28;1155;-73
2021/06/02 00:38:06;;;;;;;;;;;19.90;61.00;;;;;;5032980;28;1204;-73
2021/06/02 00:40:44;;;;;;;;;;;19.90;61.00;;;;;;5033096;28;1238;-73
2021/06/02 00:43:09;;;;;;;;;;;19.90;61.00;;;;;;5032598;28;1115;-73
2021/06/02 00:45:35;;;;;;;;;;;19.90;61.00;;;;;;5012825;28;1958;-73
2021/06/02 00:48:01;;;;;;;;;;;19.90;61.10;;;;;;5026888;28;1288;-73
2021/06/02 00:50:26;;;;;;;;;;;19.90;61.00;;;;;;5032736;28;1064;-74
2021/06/02 00:52:52;;;;;;;;;;;19.90;61.10;;;;;;5032484;28;1076;-73
2021/06/02 00:55:17;;;;;;;;;;;19.90;61.10;;;;;;5033973;28;1084;-73
2021/06/02 00:57:45;;;;;;;;;;;19.90;61.10;;;;;;5033901;28;1336;-73
2021/06/02 01:00:12;;;;;;;;;;;19.90;61.10;;;;;;5032412;28;1139;-73
2021/06/02 01:02:37;;;;;;;;;;;19.90;61.10;;;;;;5032879;28;1248;-73
2021/06/02 01:05:03;;;;;;;;;;;19.90;61.10;;;;;;5032291;28;1902;-73
2021/06/02 01:07:28;;;;;;;;;;;19.90;61.10;;;;;;5033369;28;1265;-73
2021/06/02 01:09:57;;;;;;;;;;;19.90;61.10;;;;;;5033358;28;1040;-73
2021/06/02 01:12:27;;;;;;;;;;;19.90;61.10;;;;;;5030583;28;1151;-73
2021/06/02 01:14:52;;;;;;;;;;;19.90;61.20;;;;;;5033144;28;1170;-73
2021/06/02 01:17:19;;;;;;;;;;;19.90;61.20;;;;;;5033148;28;1297;-73
2021/06/02 01:19:44;;;;;;;;;;;19.90;61.20;;;;;;5032337;28;1080;-73
2021/06/02 01:22:10;;;;;;;;;;;19.90;61.20;;;;;;5032283;28;1110;-73
2021/06/02 01:24:35;;;;;;;;;;;19.90;61.20;;;;;;5032765;28;1106;-73
2021/06/02 01:27:01;;;;;;;;;;;19.90;61.20;;;;;;5033062;28;1906;-73
2021/06/02 01:29:27;;;;;;;;;;;19.90;61.20;;;;;;5033148;28;1091;-73
2021/06/02 01:32:05;;;;;;;;;;;19.90;61.30;;;;;;5032124;28;1072;-73
2021/06/02 01:34:50;;;;;;;;;;;19.90;61.30;;;;;;5032875;28;1229;-73
2021/06/02 01:37:18;;;;;;;;;;;19.90;61.30;;;;;;5032762;28;1302;-73
2021/06/02 01:40:02;;;;;;;;;;;19.90;61.30;;;;;;5032958;28;1165;-73
2021/06/02 01:42:27;;;;;;;;;;;19.90;61.30;;;;;;5032556;28;1032;-74
2021/06/02 01:45:11;;;;;;;;;;;19.90;61.30;;;;;;5032787;28;1135;-73
2021/06/02 01:47:42;;;;;;;;;;;19.90;61.30;;;;;;5033201;28;1410;-73
2021/06/02 01:50:10;;;;;;;;;;;19.90;61.40;;;;;;5031611;28;1150;-73
2021/06/02 01:52:54;;;;;;;;;;;19.90;61.40;;;;;;5032727;28;1119;-73
2021/06/02 01:55:20;;;;;;;;;;;19.80;61.30;;;;;;5032805;28;1190;-73
2021/06/02 01:58:04;;;;;;;;;;;19.90;61.40;;;;;;5032871;28;1362;-73
2021/06/02 02:00:45;;;;;;;;;;;19.80;61.30;;;;;;5032424;28;1068;-73
2021/06/02 02:03:30;;;;;;;;;;;19.90;61.40;;;;;;5031616;28;1123;-73
2021/06/02 02:05:58;;;;;;;;;;;19.90;61.40;;;;;;5032929;28;1950;-73
2021/06/02 02:08:26;;;;;;;;;;;19.90;61.50;;;;;;5032980;28;1224;-73
2021/06/02 02:10:52;;;;;;;;;;;19.90;61.40;;;;;;5032414;28;1057;-73
2021/06/02 02:13:36;;;;;;;;;;;19.80;61.40;;;;;;5031159;28;1499;-73
2021/06/02 02:16:17;;;;;;;;;;;19.80;61.40;;;;;;5032466;28;1142;-73
2021/06/02 02:18:45;;;;;;;;;;;19.90;61.50;;;;;;5031218;28;1353;-73
2021/06/02 02:21:11;;;;;;;;;;;19.90;62.20;;;;;;5031313;28;1083;-73
2021/06/02 02:23:56;;;;;;;;;;;19.90;61.50;;;;;;5030358;28;1119;-73
2021/06/02 02:26:24;;;;;;;;;;;19.80;61.50;;;;;;5032698;28;1961;-74
2021/06/02 02:28:51;;;;;;;;;;;19.90;61.50;;;;;;5032361;28;1284;-73
2021/06/02 02:31:28;;;;;;;;;;;19.80;61.40;;;;;;5032787;28;1064;-73
2021/06/02 02:34:12;;;;;;;;;;;19.80;61.50;;;;;;5031248;28;1040;-73
2021/06/02 02:36:39;;;;;;;;;;;19.90;61.50;;;;;;5032303;28;1091;-74
2021/06/02 02:39:20;;;;;;;;;;;19.80;61.50;;;;;;5030974;28;1275;-73
2021/06/02 02:41:48;;;;;;;;;;;19.80;61.50;;;;;;5031136;28;1044;-73
2021/06/02 02:44:23;;;;;;;;;;;19.80;61.50;;;;;;5029886;28;1447;-73
2021/06/02 02:46:49;;;;;;;;;;;19.90;61.60;;;;;;5031265;28;1967;-73
2021/06/02 02:49:27;;;;;;;;;;;19.80;61.50;;;;;;5032137;28;1068;-73
2021/06/02 02:52:09;;;;;;;;;;;19.80;61.50;;;;;;5032366;28;1170;-73
2021/06/02 02:54:38;;;;;;;;;;;19.80;61.50;;;;;;5031119;28;1084;-73
2021/06/02 02:57:06;;;;;;;;;;;19.80;61.60;;;;;;5032370;28;1244;-73
2021/06/02 02:59:55;;;;;;;;;;;19.80;61.60;;;;;;5030746;28;1199;-73
2021/06/02 03:02:26;;;;;;;;;;;19.80;61.60;;;;;;5026679;28;1289;-73
2021/06/02 03:04:52;;;;;;;;;;;19.80;61.60;;;;;;5030825;28;1186;-73
2021/06/02 03:07:17;;;;;;;;;;;19.80;61.60;;;;;;5030838;28;1961;-73
2021/06/02 03:09:52;;;;;;;;;;;19.80;62.40;;;;;;5031820;28;1151;-73
2021/06/02 03:12:18;;;;;;;;;;;19.80;61.60;;;;;;5030728;28;1104;-73
2021/06/02 03:14:43;;;;;;;;;;;19.80;61.60;;;;;;5031247;28;1166;-74
2021/06/02 03:17:09;;;;;;;;;;;19.80;61.60;;;;;;5032009;28;1271;-73
2021/06/02 03:19:38;;;;;;;;;;;19.80;61.60;;;;;;5030753;28;1149;-73
2021/06/02 03:22:04;;;;;;;;;;;19.80;61.60;;;;;;5030464;28;1128;-73
2021/06/02 03:24:49;;;;;;;;;;;19.80;61.60;;;;;;5030231;28;1159;-73
2021/06/02 03:27:19;;;;;;;;;;;19.80;61.60;;;;;;5031869;28;1894;-73
2021/06/02 03:30:04;;;;;;;;;;;19.80;61.60;;;;;;5031072;28;1395;-73
2021/06/02 03:33:05;;;;;;;;;;;19.80;61.60;;;;;;5031624;28;1048;-73
2021/06/02 03:35:49;;;;;;;;;;;19.80;61.60;;;;;;4992762;28;1211;-73
2021/06/02 03:38:20;;;;;;;;;;;19.80;61.50;;;;;;5027551;28;1235;-73
2021/06/02 03:40:52;;;;;;;;;;;19.80;61.10;;;;;;5035241;28;1127;-73
2021/06/02 03:43:25;;;;;;;;;;;19.90;61.20;;;;;;5034808;28;1134;-73
2021/06/02 03:45:56;;;;;;;;;;;19.90;61.20;;;;;;5034377;28;1903;-73
2021/06/02 03:48:34;;;;;;;;;;;19.90;61.10;;;;;;5035523;28;1230;-73
2021/06/02 03:51:06;;;;;;;;;;;20.00;61.10;;;;;;5016900;28;1192;-73
2021/06/02 03:53:32;;;;;;;;;;;20.10;60.90;;;;;;5035237;28;1207;-73
2021/06/02 03:56:02;;;;;;;;;;;20.20;60.70;;;;;;5033881;28;1075;-73
2021/06/02 03:58:31;;;;;;;;;;;20.30;60.50;;;;;;5034201;28;1221;-73
2021/06/02 04:01:03;;;;;;;;;;;20.40;60.30;;;;;;5035060;28;1019;-73
2021/06/02 04:03:31;;;;;;;;;;;20.40;60.10;;;;;;5033301;28;1170;-73
2021/06/02 04:06:17;;;;;;;;;;;20.50;59.90;;;;;;5033613;28;1959;-73
2021/06/02 04:08:49;;;;;;;;;;;20.50;59.70;;;;;;5034204;28;1423;-73
2021/06/02 04:11:18;;;;;;;;;;;20.60;59.60;;;;;;5035093;28;1122;-73
2021/06/02 04:13:50;;;;;;;;;;;20.60;59.40;;;;;;5035281;28;1079;-73
2021/06/02 04:16:16;;;;;;;;;;;20.70;59.30;;;;;;5021958;28;1212;-73
2021/06/02 04:18:41;;;;;;;;;;;20.80;59.20;;;;;;5034993;28;1251;-73
2021/06/02 04:21:07;;;;;;;;;;;20.80;59.10;;;;;;5033902;28;1265;-73
2021/06/02 04:23:33;;;;;;;;;;;20.80;59.10;;;;;;5034104;28;1119;-73
2021/06/02 04:25:58;;;;;;;;;;;20.90;59.00;;;;;;5034724;28;1906;-73
2021/06/02 04:28:24;;;;;;;;;;;20.90;58.90;;;;;;5032955;28;1248;-73
2021/06/02 04:30:49;;;;;;;;;;;21.00;58.90;;;;;;5034741;28;1150;-73
2021/06/02 04:33:18;;;;;;;;;;;21.00;58.80;;;;;;5034134;28;1115;-73
2021/06/02 04:35:46;;;;;;;;;;;21.00;58.70;;;;;;5033319;28;1317;-73
2021/06/02 04:38:11;;;;;;;;;;;21.00;58.60;;;;;;5032909;28;1188;-73
2021/06/02 04:40:38;;;;;;;;;;;21.10;58.60;;;;;;5033434;28;1140;-73
2021/06/02 04:43:03;;;;;;;;;;;21.10;58.60;;;;;;5032188;28;1076;-73
2021/06/02 04:45:29;;;;;;;;;;;21.10;58.50;;;;;;5032797;28;1914;-73
2021/06/02 04:47:54;;;;;;;;;;;21.20;58.50;;;;;;5033001;28;1382;-73
2021/06/02 04:50:23;;;;;;;;;;;21.10;58.40;;;;;;5032535;28;1500;-73
2021/06/02 04:53:08;;;;;;;;;;;21.10;58.40;;;;;;5033191;28;1088;-73
2021/06/02 04:55:40;;;;;;;;;;;21.20;58.40;;;;;;5032636;28;1072;-73
2021/06/02 04:58:05;;;;;;;;;;;21.20;58.40;;;;;;5033000;28;1400;-73
2021/06/02 05:00:33;;;;;;;;;;;21.20;58.90;;;;;;5034113;28;1036;-73
2021/06/02 05:03:17;;;;;;;;;;;21.20;58.30;;;;;;5033697;28;1083;-73
2021/06/02 05:05:49;;;;;;;;;;;21.30;58.30;;;;;;5033802;28;1905;-73
2021/06/02 05:08:24;;;;;;;;;;;21.30;58.30;;;;;;5033549;28;1293;-73
2021/06/02 05:11:14;;;;;;;;;;;21.30;58.30;;;;;;5014272;28;1294;-73
2021/06/02 05:13:54;;;;;;;;;;;21.30;58.20;;;;;;5012165;28;1349;-73
2021/06/02 05:16:38;;;;;;;;;;;21.30;58.20;;;;;;5019162;28;1080;-73
2021/06/02 05:22:22;;;;;;;;;;;21.40;58.20;;;;;;5033743;28;1098;-73
2021/06/02 05:24:55;;;;;;;;;;;21.40;58.20;;;;;;5032319;28;1083;-73
2021/06/02 05:27:26;;;;;;;;;;;21.40;58.20;;;;;;5032347;28;1906;-73
2021/06/02 05:29:58;;;;;;;;;;;21.40;58.20;;;;;;5033354;28;1126;-73
2021/06/02 05:32:23;;;;;;;;;;;21.40;58.20;;;;;;5032323;28;1404;-73
2021/06/02 05:35:07;;;;;;;;;;;21.40;58.20;;;;;;5032949;28;1067;-73
2021/06/02 05:37:40;;;;;;;;;;;21.40;58.20;;;;;;5033158;28;1279;-73
2021/06/02 05:40:24;;;;;;;;;;;21.40;58.20;;;;;;5031867;28;1088;-73
2021/06/02 05:43:02;;;;;;;;;;;21.40;58.20;;;;;;5033191;28;1067;-73
2021/06/02 05:45:49;;;;;;;;;;;21.40;58.30;;;;;;5032541;28;1961;-73
2021/06/02 05:48:18;;;;;;;;;;;21.40;58.30;;;;;;5015514;28;1315;-73
2021/06/02 05:51:11;;;;;;;;;;;21.30;58.30;;;;;;5032067;28;1084;-73
2021/06/02 05:53:55;;;;;;;;;;;21.30;58.30;;;;;;5031586;28;1138;-73
2021/06/02 05:56:38;;;;;;;;;;;21.30;58.40;;;;;;5032725;28;1119;-73
2021/06/02 05:59:22;;;;;;;;;;;21.30;58.40;;;;;;5032763;28;1201;-73
2021/06/02 06:01:48;;;;;;;;;;;21.30;58.50;;;;;;5032903;28;1163;-73
2021/06/02 06:04:31;;;;;;;;;;;21.30;58.50;;;;;;5031919;28;1162;-73
2021/06/02 06:07:15;;;;;;;;;;;21.30;58.60;;;;;;5032586;28;1894;-73
2021/06/02 06:09:56;;;;;;;;;;;21.30;58.70;;;;;;5032920;28;1115;-74
2021/06/02 06:12:40;;;;;;;;;;;21.20;58.60;;;;;;5032706;28;1150;-73
2021/06/02 06:15:33;;;;;;;;;;;21.20;58.70;;;;;;5021884;28;1306;-73
2021/06/02 06:18:13;;;;;;;;;;;21.20;58.70;;;;;;5023936;28;1291;-73
2021/06/02 06:20:57;;;;;;;;;;;21.20;58.70;;;;;;5032581;28;1266;-73
2021/06/02 06:23:39;;;;;;;;;;;21.20;58.80;;;;;;5031904;28;1123;-73
2021/06/02 06:26:14;;;;;;;;;;;21.20;58.80;;;;;;5031717;28;1971;-73
2021/06/02 06:28:40;;;;;;;;;;;21.10;58.60;;;;;;5032165;28;1207;-73
2021/06/02 06:31:06;;;;;;;;;;;21.10;58.50;;;;;;5032465;28;1159;-72
2021/06/02 06:33:31;;;;;;;;;;;21.10;58.00;;;;;;5030041;28;1092;-73
2021/06/02 06:35:56;;;;;;;;;;;21.00;57.80;;;;;;5030305;28;1435;-70
2021/06/02 06:38:24;;;;;;;;;;;21.00;58.10;;;;;;5014024;28;1995;-69
2021/06/02 06:40:51;;;;;;;;;;;21.00;58.20;;;;;;5049596;28;1493;-71
2021/06/02 06:43:16;;;;;;;;;;;21.00;58.30;;;;;;5042381;28;1591;-72
2021/06/02 06:45:43;;;;;;;;;;;21.00;58.40;;;;;;5030319;28;1969;-71
2021/06/02 06:48:10;;;;;;;;;;;21.00;58.50;;;;;;5030424;28;1288;-71
2021/06/02 06:50:35;;;;;;;;;;;21.00;58.50;;;;;;5032328;28;1052;-71
2021/06/02 06:53:01;;;;;;;;;;;21.00;58.50;;;;;;5030234;28;1143;-71
2021/06/02 06:55:27;;;;;;;;;;;21.00;58.60;;;;;;5030763;28;1080;-71
2021/06/02 06:57:52;;;;;;;;;;;21.00;58.60;;;;;;5032265;28;1209;-71
2021/06/02 07:00:18;;;;;;;;;;;21.00;58.70;;;;;;5031996;28;1134;-71
2021/06/02 07:02:44;;;;;;;;;;;21.00;58.80;;;;;;5030576;28;1084;-71
2021/06/02 07:05:09;;;;;;;;;;;21.00;58.80;;;;;;5030969;28;1898;-71
2021/06/02 07:07:35;;;;;;;;;;;20.90;58.80;;;;;;5032477;28;1351;-70
2021/06/02 07:10:01;;;;;;;;;;;20.90;58.90;;;;;;5036024;28;1079;-71
2021/06/02 07:12:26;;;;;;;;;;;20.90;58.90;;;;;;5036041;28;1134;-71
2021/06/02 07:14:52;;;;;;;;;;;20.90;59.00;;;;;;5034276;28;1201;-71
2021/06/02 07:17:18;;;;;;;;;;;20.90;59.00;;;;;;5033222;28;1272;-71
2021/06/02 07:19:44;;;;;;;;;;;20.90;59.30;;;;;;5034590;28;1569;-71
2021/06/02 07:22:10;;;;;;;;;;;20.90;59.50;;;;;;5034285;28;1453;-71
2021/06/02 07:24:35;;;;;;;;;;;20.90;59.90;;;;;;5031905;28;1340;-71
2021/06/02 07:27:01;;;;;;;;;;;21.00;60.20;;;;;;5032820;28;1898;-71
2021/06/02 07:29:27;;;;;;;;;;;20.90;60.00;;;;;;5032742;28;1316;-71
2021/06/02 07:31:52;;;;;;;;;;;20.90;60.10;;;;;;5033421;28;1114;-71
2021/06/02 07:34:19;;;;;;;;;;;20.90;60.20;;;;;;5032118;28;1348;-71
2021/06/02 07:36:45;;;;;;;;;;;20.90;60.40;;;;;;5034220;28;1257;-71
2021/06/02 07:39:10;;;;;;;;;;;20.90;60.80;;;;;;5033788;28;1342;-73
2021/06/02 07:41:36;;;;;;;;;;;20.90;60.80;;;;;;5034203;28;1415;-73
2021/06/02 07:44:01;;;;;;;;;;;21.00;61.00;;;;;;5035586;28;1323;-72
2021/06/02 07:46:27;;;;;;;;;;;21.00;61.10;;;;;;5036894;28;1914;-72
2021/06/02 07:48:52;;;;;;;;;;;21.00;61.00;;;;;;5036362;28;1919;-72
2021/06/02 07:51:18;;;;;;;;;;;21.00;60.90;;;;;;5037134;28;1049;-72
2021/06/02 07:53:43;;;;;;;;;;;21.00;61.70;;;;;;5041660;28;1204;-71
2021/06/02 07:56:09;;;;;;;;;;;21.00;61.00;;;;;;5037120;28;1827;-72
2021/06/02 07:58:34;;;;;;;;;;;21.00;61.10;;;;;;5037815;28;1319;-72
2021/06/02 08:01:00;;;;;;;;;;;20.90;61.10;;;;;;5053423;28;1074;-72
2021/06/02 08:03:25;;;;;;;;;;;20.90;61.10;;;;;;5023750;28;1040;-72
2021/06/02 08:05:51;;;;;;;;;;;20.90;61.20;;;;;;5035404;28;1910;-71
2021/06/02 08:08:17;;;;;;;;;;;20.90;61.20;;;;;;5035661;28;1337;-72
2021/06/02 08:10:42;;;;;;;;;;;20.90;61.30;;;;;;5035219;28;1079;-72
2021/06/02 08:13:08;;;;;;;;;;;20.90;61.30;;;;;;5034598;28;1072;-72
2021/06/02 08:15:33;;;;;;;;;;;20.90;61.40;;;;;;5021711;28;1239;-71
2021/06/02 08:17:59;;;;;;;;;;;20.90;61.50;;;;;;5035663;28;1350;-71
2021/06/02 08:20:24;;;;;;;;;;;20.90;61.70;;;;;;5034678;28;1071;-72
2021/06/02 08:22:50;;;;;;;;;;;20.90;61.80;;;;;;5034998;28;1707;-71
2021/06/02 08:25:15;;;;;;;;;;;20.90;62.00;;;;;;5033679;28;1906;-72
2021/06/02 08:27:41;;;;;;;;;;;20.90;61.90;;;;;;5034398;28;1414;-72
2021/06/02 08:30:07;;;;;;;;;;;20.90;62.00;;;;;;5032620;28;1861;-71
2021/06/02 08:32:32;;;;;;;;;;;20.90;62.10;;;;;;5032929;28;2179;-72
2021/06/02 08:34:58;;;;;;;;;;;20.90;62.10;;;;;;5053087;28;1125;-72
2021/06/02 08:37:23;;;;;;;;;;;20.90;62.50;;;;;;5033863;28;1317;-72
2021/06/02 08:39:49;;;;;;;;;;;20.90;62.50;;;;;;5035061;28;968;-72
2021/06/02 08:42:15;;;;;;;;;;;20.90;62.60;;;;;;5034692;28;1107;-72
2021/06/02 08:44:40;;;;;;;;;;;20.90;62.50;;;;;;5033948;28;1115;-72
2021/06/02 08:47:06;;;;;;;;;;;20.90;62.40;;;;;;5016597;28;1898;-72
2021/06/02 08:49:31;;;;;;;;;;;20.80;62.40;;;;;;5033127;28;1068;-72
2021/06/02 08:51:57;;;;;;;;;;;20.80;62.40;;;;;;5034774;28;1004;-72
2021/06/02 08:54:22;;;;;;;;;;;20.90;62.60;;;;;;5012912;28;1387;-72
2021/06/02 08:56:48;;;;;;;;;;;20.80;62.50;;;;;;5032622;28;1124;-72
2021/06/02 08:59:13;;;;;;;;;;;20.80;62.60;;;;;;5034413;28;1317;-72
2021/06/02 09:01:39;;;;;;;;;;;20.80;62.60;;;;;;5032413;28;1865;-73
2021/06/02 09:04:07;;;;;;;;;;;20.80;62.70;;;;;;5035066;28;1014;-73
2021/06/02 09:06:33;;;;;;;;;;;20.80;62.70;;;;;;5043116;28;1965;-73
2021/06/02 09:09:00;;;;;;;;;;;20.80;62.80;;;;;;5032391;28;1298;-73
2021/06/02 09:11:26;;;;;;;;;;;20.80;62.80;;;;;;5033099;28;1116;-73
2021/06/02 09:13:51;;;;;;;;;;;20.80;62.90;;;;;;5033605;28;1151;-73
2021/06/02 09:16:24;;;;;;;;;;;20.80;62.90;;;;;;5034016;28;1387;-73
2021/06/02 09:18:57;;;;;;;;;;;20.80;63.00;;;;;;5032326;28;1376;-73
2021/06/02 09:21:23;;;;;;;;;;;20.80;62.90;;;;;;5032722;28;1135;-73
2021/06/02 09:23:49;;;;;;;;;;;20.80;63.00;;;;;;5033235;28;1585;-73
2021/06/02 09:26:33;;;;;;;;;;;20.80;63.00;;;;;;5033989;28;1898;-73
2021/06/02 09:29:00;;;;;;;;;;;20.80;63.10;;;;;;5033576;28;1728;-73
2021/06/02 09:31:31;;;;;;;;;;;20.80;63.10;;;;;;5029867;28;2127;-73
2021/06/02 09:34:01;;;;;;;;;;;20.80;63.20;;;;;;5033920;28;1958;-73
2021/06/02 09:36:27;;;;;;;;;;;20.80;63.20;;;;;;5043502;28;1115;-71
2021/06/02 09:38:54;;;;;;;;;;;20.80;64.00;;;;;;5033507;28;1369;-71
2021/06/02 09:41:19;;;;;;;;;;;20.80;63.30;;;;;;5033764;28;1130;-72
2021/06/02 09:43:44;;;;;;;;;;;20.80;63.30;;;;;;5032710;28;1091;-73
2021/06/02 09:46:13;;;;;;;;;;;20.80;63.30;;;;;;5033452;28;1894;-71
2021/06/02 09:48:42;;;;;;;;;;;20.80;63.20;;;;;;5033161;28;1361;-72
2021/06/02 09:51:27;;;;;;;;;;;20.80;63.40;;;;;;5031660;28;1469;-73
2021/06/02 09:53:53;;;;;;;;;;;20.80;63.40;;;;;;5032987;28;1056;-73
2021/06/02 09:56:51;;;;;;;;;;;20.80;63.40;;;;;;5032779;28;1106;-73
2021/06/02 09:59:18;;;;;;;;;;;20.80;63.60;;;;;;5001644;28;1266;-70
2021/06/02 10:01:50;;;;;;;;;;;20.80;63.60;;;;;;5018681;28;1322;-71
2021/06/02 10:04:16;;;;;;;;;;;20.80;63.60;;;;;;5032899;28;1110;-71
2021/06/02 10:06:41;;;;;;;;;;;20.80;63.70;;;;;;5032963;28;1947;-71
2021/06/02 10:09:07;;;;;;;;;;;20.80;63.70;;;;;;5033415;28;1269;-73
2021/06/02 10:11:34;;;;;;;;;;;20.80;63.80;;;;;;5028823;28;2004;-73
2021/06/02 10:14:01;;;;;;;;;;;20.80;63.80;;;;;;5035631;28;1088;-72
2021/06/02 10:16:36;;;;;;;;;;;20.80;63.80;;;;;;5040290;28;1075;-74
2021/06/02 10:19:01;;;;;;;;;;;20.80;63.90;;;;;;5027566;28;1168;-74
2021/06/02 10:21:40;;;;;;;;;;;20.80;63.80;;;;;;5031462;28;1111;-72
2021/06/02 10:24:07;;;;;;;;;;;20.80;63.90;;;;;;5031106;28;1135;-72
2021/06/02 10:26:32;;;;;;;;;;;20.80;64.00;;;;;;5032514;28;1906;-72
2021/06/02 10:28:58;;;;;;;;;;;20.80;64.00;;;;;;5031696;28;1249;-72
2021/06/02 10:31:23;;;;;;;;;;;20.70;64.00;;;;;;5034422;28;2393;-72
2021/06/02 10:33:49;;;;;;;;;;;20.70;64.00;;;;;;5020850;28;2136;-72
2021/06/02 10:36:14;;;;;;;;;;;20.70;64.00;;;;;;5040470;28;1098;-72
2021/06/02 10:38:43;;;;;;;;;;;20.80;64.10;;;;;;5039782;28;1231;-72
2021/06/02 10:41:09;;;;;;;;;;;20.70;64.10;;;;;;5038228;28;1106;-72
2021/06/02 10:43:34;;;;;;;;;;;20.70;64.10;;;;;;5029003;28;1109;-72
2021/06/02 10:46:04;;;;;;;;;;;20.70;64.10;;;;;;5027766;28;1965;-68
2021/06/02 10:48:41;;;;;;;;;;;20.70;64.10;;;;;;5028799;28;1268;-69
2021/06/02 10:51:06;;;;;;;;;;;20.70;64.10;;;;;;5026711;28;2030;-70
2021/06/02 10:53:32;;;;;;;;;;;20.70;64.20;;;;;;5023340;28;1266;-69
2021/06/02 10:55:59;;;;;;;;;;;20.70;64.20;;;;;;5036438;28;1016;-68
2021/06/02 10:58:31;;;;;;;;;;;20.70;64.20;;;;;;5026956;28;1364;-70
2021/06/02 11:01:05;;;;;;;;;;;20.70;64.30;;;;;;5031067;28;1219;-69
2021/06/02 11:03:31;;;;;;;;;;;20.70;64.20;;;;;;5027348;28;1169;-72
2021/06/02 11:06:05;;;;;;;;;;;20.70;64.30;;;;;;5024988;28;1898;-73
2021/06/02 11:08:54;;;;;;;;;;;20.70;64.30;;;;;;5027972;28;1294;-70
2021/06/02 11:11:19;;;;;;;;;;;20.70;64.30;;;;;;5028011;28;1380;-69
2021/06/02 11:14:04;;;;;;;;;;;20.70;64.40;;;;;;5030971;28;1047;-69
2021/06/02 11:16:36;;;;;;;;;;;20.70;64.40;;;;;;5029792;28;1274;-69
2021/06/02 11:19:17;;;;;;;;;;;20.70;64.40;;;;;;5030854;28;1173;-69
2021/06/02 11:22:03;;;;;;;;;;;20.70;64.40;;;;;;5029455;28;1178;-69
2021/06/02 11:24:35;;;;;;;;;;;20.70;64.40;;;;;;5029998;28;1040;-68
2021/06/02 11:27:21;;;;;;;;;;;20.70;64.40;;;;;;5030886;28;1981;-69
2021/06/02 11:29:46;;;;;;;;;;;20.80;64.50;;;;;;5022928;28;1186;-68
2021/06/02 11:32:15;;;;;;;;;;;20.80;64.50;;;;;;5030687;28;1111;-68
2021/06/02 11:34:40;;;;;;;;;;;20.80;64.50;;;;;;5031591;28;1059;-72
2021/06/02 11:37:09;;;;;;;;;;;20.80;64.50;;;;;;5030408;28;1826;-71
2021/06/02 11:39:37;;;;;;;;;;;20.80;64.70;;;;;;5030372;28;1636;-72
2021/06/02 11:42:03;;;;;;;;;;;20.70;64.60;;;;;;5030778;28;1410;-71
2021/06/02 11:44:28;;;;;;;;;;;20.70;64.60;;;;;;5031057;28;932;-72
2021/06/02 11:46:54;;;;;;;;;;;20.80;64.70;;;;;;5031249;28;1898;-71
2021/06/02 11:49:29;;;;;;;;;;;20.70;64.70;;;;;;5030819;28;1436;-70
2021/06/02 11:51:57;;;;;;;;;;;20.70;64.60;;;;;;5030959;28;1641;-70
2021/06/02 11:54:23;;;;;;;;;;;20.70;64.70;;;;;;5030862;28;1698;-70
2021/06/02 11:56:48;;;;;;;;;;;20.70;64.70;;;;;;5034195;28;1540;-69
2021/06/02 11:59:14;;;;;;;;;;;20.70;64.70;;;;;;5035062;28;1654;-74
2021/06/02 12:01:39;;;;;;;;;;;20.70;64.70;;;;;;5036928;28;1678;-74
2021/06/02 12:04:05;;;;;;;;;;;20.70;64.70;;;;;;5042930;28;1600;-75
2021/06/02 12:06:31;;;;;;;;;;;20.70;64.90;;;;;;5033429;28;1952;-75
2021/06/02 12:08:56;;;;;;;;;;;20.70;63.80;;;;;;5033614;28;1211;-74
2021/06/02 12:11:22;;;;;;;;;;;20.70;62.80;;;;;;5035089;28;1119;-75
2021/06/02 12:13:47;;;;;;;;;;;20.80;62.20;;;;;;5034208;28;1042;-75
2021/06/02 12:16:14;;;;;;;;;;;20.70;61.80;;;;;;5034916;28;1233;-74
2021/06/02 12:18:41;;;;;;;;;;;20.80;61.80;;;;;;5033710;28;1381;-74
2021/06/02 12:21:17;;;;;;;;;;;20.70;61.70;;;;;;5033161;28;1134;-73
2021/06/02 12:23:47;;;;;;;;;;;20.70;61.60;;;;;;5032767;28;1088;-76
2021/06/02 12:26:19;;;;;;;;;;;20.70;61.40;;;;;;5037826;28;2120;-74
2021/06/02 12:28:45;;;;;;;;;;;20.70;61.40;;;;;;5045057;28;1383;-72
2021/06/02 12:31:26;;;;;;;;;;;20.70;61.20;;;;;;5044865;28;1062;-75
2021/06/02 12:33:58;;;;;;;;;;;20.70;61.10;;;;;;5038281;28;1038;-73
2021/06/02 12:36:24;;;;;;;;;;;20.80;60.80;;;;;;5046327;28;1125;-76
2021/06/02 12:38:49;;;;;;;;;;;20.70;61.00;;;;;;5030661;28;1378;-74
2021/06/02 12:41:14;;;;;;;;;;;20.70;60.70;;;;;;5031957;28;1099;-74
2021/06/02 12:43:45;;;;;;;;;;;20.80;61.00;;;;;;5013176;28;1202;-74
2021/06/02 12:46:14;;;;;;;;;;;20.80;59.90;;;;;;5027091;28;1914;-74
2021/06/02 12:48:40;;;;;;;;;;;20.80;59.80;;;;;;5030526;28;2031;-74
2021/06/02 12:51:06;;;;;;;;;;;20.80;58.80;;;;;;5016550;28;2011;-76
2021/06/02 12:53:38;;;;;;;;;;;20.80;58.20;;;;;;5042583;28;1142;-76
2021/06/02 12:56:04;;;;;;;;;;;20.80;57.70;;;;;;5033981;28;1135;-76
2021/06/02 12:58:31;;;;;;;;;;;20.90;58.30;;;;;;5015809;28;1230;-76
2021/06/02 13:01:00;;;;;;;;;;;20.90;58.80;;;;;;5033912;28;1158;-76
2021/06/02 13:03:25;;;;;;;;;;;20.90;58.80;;;;;;5032640;28;1076;-76
2021/06/02 13:05:50;;;;;;;;;;;20.90;59.20;;;;;;5033600;28;1953;-76
2021/06/02 13:08:16;;;;;;;;;;;20.90;59.70;;;;;;5015649;28;1297;-76
2021/06/02 13:10:42;;;;;;;;;;;20.80;59.80;;;;;;5032264;28;1101;-76
2021/06/02 13:13:08;;;;;;;;;;;20.80;59.80;;;;;;5032130;28;1142;-76
2021/06/02 13:15:34;;;;;;;;;;;20.80;58.80;;;;;;5019091;28;1174;-75
2021/06/02 13:18:00;;;;;;;;;;;20.90;58.90;;;;;;5033609;28;1326;-75
2021/06/02 13:20:29;;;;;;;;;;;20.90;59.40;;;;;;5033156;28;1107;-76
2021/06/02 13:23:11;;;;;;;;;;;20.80;59.70;;;;;;5031798;28;1159;-76
2021/06/02 13:25:36;;;;;;;;;;;20.80;59.80;;;;;;5031990;28;1981;-76
2021/06/02 13:28:02;;;;;;;;;;;20.80;59.90;;;;;;5032170;28;1349;-76
2021/06/02 13:30:44;;;;;;;;;;;20.80;60.00;;;;;;5033581;28;1084;-76
2021/06/02 13:33:10;;;;;;;;;;;20.80;59.70;;;;;;5031243;28;1154;-76
2021/06/02 13:35:35;;;;;;;;;;;20.70;59.80;;;;;;5032379;28;1096;-76
2021/06/02 13:38:01;;;;;;;;;;;20.80;59.90;;;;;;5031444;28;1308;-75
2021/06/02 13:40:36;;;;;;;;;;;20.70;59.80;;;;;;5031975;28;1104;-76
2021/06/02 13:43:09;;;;;;;;;;;20.70;59.80;;;;;;5032751;28;1162;-76
2021/06/02 13:45:56;;;;;;;;;;;20.70;58.60;;;;;;5020419;28;1910;-76
2021/06/02 13:48:40;;;;;;;;;;;20.70;59.00;;;;;;5032842;28;1212;-76
2021/06/02 13:51:21;;;;;;;;;;;20.70;59.60;;;;;;5033786;28;1107;-75
2021/06/02 13:54:02;;;;;;;;;;;20.70;59.70;;;;;;5039329;28;1302;-76
2021/06/02 13:56:31;;;;;;;;;;;20.70;58.40;;;;;;5039707;28;1243;-78
2021/06/02 13:59:09;;;;;;;;;;;20.70;59.50;;;;;;5041185;28;1289;-76
2021/06/02 14:01:35;;;;;;;;;;;20.70;59.50;;;;;;5039045;28;1120;-77
2021/06/02 14:04:00;;;;;;;;;;;20.70;59.60;;;;;;5037994;28;1324;-76
2021/06/02 14:06:25;;;;;;;;;;;20.70;59.60;;;;;;5032782;28;1906;-77
2021/06/02 14:08:51;;;;;;;;;;;20.70;58.30;;;;;;5033344;28;1236;-77
2021/06/02 14:11:20;;;;;;;;;;;20.70;58.70;;;;;;5033168;28;1075;-76
2021/06/02 14:13:45;;;;;;;;;;;20.70;59.20;;;;;;5032617;28;808;-77
2021/06/02 14:16:11;;;;;;;;;;;20.70;59.30;;;;;;5019468;28;1259;-76
2021/06/02 14:18:36;;;;;;;;;;;20.70;59.20;;;;;;5032353;28;1364;-75
2021/06/02 14:21:02;;;;;;;;;;;20.70;58.60;;;;;;5032470;28;1139;-76
2021/06/02 14:23:27;;;;;;;;;;;20.70;58.70;;;;;;5031019;28;1127;-77
2021/06/02 14:25:53;;;;;;;;;;;20.70;58.60;;;;;;5031234;28;1953;-75
2021/06/02 14:28:21;;;;;;;;;;;20.70;58.50;;;;;;5032518;28;1255;-77
2021/06/02 14:30:47;;;;;;;;;;;20.70;59.10;;;;;;5030999;28;1426;-76
2021/06/02 14:33:12;;;;;;;;;;;20.70;59.20;;;;;;5031008;28;1072;-77
2021/06/02 14:35:37;;;;;;;;;;;20.70;59.20;;;;;;5032700;28;937;-76
2021/06/02 14:38:04;;;;;;;;;;;20.70;59.30;;;;;;5031097;28;1291;-77
2021/06/02 14:40:29;;;;;;;;;;;20.70;58.90;;;;;;5031610;28;1729;-75
2021/06/02 14:42:55;;;;;;;;;;;20.70;59.10;;;;;;5041396;28;1143;-76
2021/06/02 14:45:20;;;;;;;;;;;20.70;59.30;;;;;;5036342;28;1078;-76
2021/06/02 14:47:45;;;;;;;;;;;20.60;59.10;;;;;;5041241;28;1975;-75
2021/06/02 14:50:11;;;;;;;;;;;20.70;59.10;;;;;;5034174;28;705;-76